Time;durP1;ratioP1;P1;durP2;ratioP2;P2;SDS_P1;SDS_P2;PMS_P1;PMS_P2;Temp;Humidity;BMP_temperature;BMP_pressure;BME280_temperature;BME280_humidity;BME280_pressure;Samples;Min_cycle;Max_cycle;Signal;HPM_P1;HPM_P2
2021/11/18 00:00:27;;;;;;;52.35;6.28;;;;;;;9.57;79.42;102568.13;5032589;28;20033;-40
2021/11/18 00:02:53;;;;;;;38.65;5.28;;;;;;;9.55;79.87;102562.88;5032369;28;20490;-40
2021/11/18 00:05:21;;;;;;;67.97;6.00;;;;;;;9.51;79.13;102565.97;5033867;28;20026;-40
2021/11/18 00:07:49;;;;;;;53.17;5.65;;;;;;;9.51;79.52;102565.97;5052272;28;20041;-40
2021/11/18 00:10:36;;;;;;;53.00;6.47;;;;;;;9.49;79.20;102567.94;5052391;28;20032;-40
2021/11/18 00:13:03;;;;;;;41.88;6.93;;;;;;;9.48;79.09;102568.91;5052463;28;20460;-40
2021/11/18 00:15:30;;;;;;;52.88;5.57;;;;;;;9.50;78.83;102569.63;5047644;28;20495;-40
2021/11/18 00:17:58;;;;;;;58.78;5.22;;;;;;;9.49;79.01;102565.25;5032540;28;20071;-41
2021/11/18 00:20:26;;;;;;;53.17;4.65;;;;;;;9.48;79.15;102574.28;5032630;28;20025;-40
2021/11/18 00:22:51;;;;;;;41.97;4.97;;;;;;;9.49;79.11;102566.09;5032451;28;20025;-40
2021/11/18 00:25:17;;;;;;;52.28;5.45;;;;;;;9.45;79.31;102570.91;5032619;28;20039;-40
2021/11/18 00:27:42;;;;;;;44.35;5.28;;;;;;;9.41;79.35;102574.81;5047554;28;20066;-40
2021/11/18 00:30:10;;;;;;;64.13;5.40;;;;;;;9.38;79.73;102568.88;5032350;28;20022;-41
2021/11/18 00:32:36;;;;;;;;;;;;;;;9.34;79.88;102579.00;5032877;28;20033;-41
2021/11/18 00:35:03;;;;;;;53.63;5.38;;;;;;;9.34;80.16;102579.00;5032311;28;20383;-40
2021/11/18 00:37:28;;;;;;;43.83;5.18;;;;;;;9.30;80.21;102580.28;5043349;28;20431;-40
2021/11/18 00:39:54;;;;;;;60.08;5.63;;;;;;;9.29;80.21;102575.00;5037604;28;20116;-40
2021/11/18 00:42:19;;;;;;;46.25;5.30;;;;;;;9.28;80.30;102576.00;5051826;28;20076;-39
2021/11/18 00:44:44;;;;;;;57.42;6.18;;;;;;;9.25;80.33;102579.81;5050640;28;20048;-40
2021/11/18 00:47:10;;;;;;;51.88;6.20;;;;;;;9.21;80.69;102581.03;5037697;28;20476;-40
2021/11/18 00:49:35;;;;;;;53.72;6.05;;;;;;;9.19;80.47;102583.88;5037614;28;20086;-39
2021/11/18 00:52:00;;;;;;;50.78;6.35;;;;;;;9.14;80.92;102583.41;5043983;28;20028;-40
2021/11/18 00:54:26;;;;;;;46.00;5.43;;;;;;;9.11;81.23;102577.41;5055745;28;20503;-40
2021/11/18 00:56:51;;;;;;;51.83;5.20;;;;;;;9.06;81.03;102580.53;5041908;28;20021;-40
2021/11/18 00:59:16;;;;;;;45.60;5.68;;;;;;;9.06;81.59;102585.00;5035647;28;20037;-40
2021/11/18 01:01:44;;;;;;;58.38;5.78;;;;;;;9.05;81.41;102583.31;5035631;28;20021;-40
2021/11/18 01:04:12;;;;;;;48.03;5.47;;;;;;;8.99;81.59;102588.22;5035740;28;20032;-40
2021/11/18 01:06:37;;;;;;;38.88;5.20;;;;;;;9.04;81.67;102587.84;5046263;28;20491;-40
2021/11/18 01:09:04;;;;;;;47.22;6.03;;;;;;;9.03;81.90;102596.91;5055640;28;20025;-40
2021/11/18 01:11:32;;;;;;;40.10;5.40;;;;;;;9.00;81.57;102587.25;5054041;28;20116;-40
2021/11/18 01:13:58;;;;;;;50.88;5.30;;;;;;;8.98;82.19;102597.28;5035243;28;20693;-40
2021/11/18 01:16:27;;;;;;;57.35;4.82;;;;;;;8.98;81.94;102597.28;5045048;28;20036;-40
2021/11/18 01:18:52;;;;;;;42.95;5.13;;;;;;;8.98;81.71;102602.66;5037689;28;20033;-40
2021/11/18 01:21:18;;;;;;;48.28;5.28;;;;;;;8.98;81.60;102594.59;5036005;28;20150;-41
2021/11/18 01:23:44;;;;;;;54.65;6.50;;;;;;;9.00;81.34;102587.25;5035783;28;20037;-40
2021/11/18 01:26:16;;;;;;;52.30;5.82;;;;;;;9.02;81.31;102574.53;5042760;28;20324;-40
2021/11/18 01:28:42;;;;;;;51.28;5.60;;;;;;;9.02;80.77;102574.53;5038123;28;20043;-40
2021/11/18 01:31:08;;;;;;;61.45;5.65;;;;;;;9.01;80.95;102583.59;5035578;28;20384;-40
2021/11/18 01:33:34;;;;;;;59.65;5.40;;;;;;;8.98;80.87;102591.06;5035454;28;20449;-40
2021/11/18 01:35:59;;;;;;;56.10;6.60;;;;;;;8.96;81.11;102591.16;5034214;28;20030;-40
2021/11/18 01:38:25;;;;;;;50.83;5.50;;;;;;;8.94;81.30;102598.50;5048112;28;20033;-40
2021/11/18 01:40:56;;;;;;;53.22;5.38;;;;;;;8.96;81.67;102595.69;5055161;28;20502;-39
2021/11/18 01:43:28;;;;;;;58.38;7.38;;;;;;;8.92;82.00;102603.13;5053621;28;20094;-39
2021/11/18 01:45:53;;;;;;;62.53;6.10;;;;;;;8.93;82.14;102601.34;5055227;28;20452;-40
2021/11/18 01:48:19;;;;;;;44.92;5.10;;;;;;;8.95;82.17;102596.66;5042618;28;20029;-39
2021/11/18 01:50:48;;;;;;;50.50;6.45;;;;;;;8.97;82.21;102603.59;5034110;28;20666;-40
2021/11/18 01:53:16;;;;;;;60.05;6.53;;;;;;;8.99;81.95;102614.22;5035639;28;20368;-39
2021/11/18 01:55:43;;;;;;;49.20;4.55;;;;;;;9.01;81.97;102610.44;5034179;28;20069;-40
2021/11/18 01:58:09;;;;;;;51.03;5.68;;;;;;;9.06;81.82;102620.81;5035064;28;20033;-40
2021/11/18 02:00:42;;;;;;;47.55;5.38;;;;;;;9.10;81.65;102614.19;5034886;28;20084;-40
2021/11/18 02:03:08;;;;;;;47.97;4.75;;;;;;;9.15;81.67;102632.59;5035026;28;20036;-40
2021/11/18 02:05:37;;;;;;;50.13;6.15;;;;;;;9.24;80.93;102629.13;5052669;28;20116;-40
2021/11/18 02:08:05;;;;;;;55.67;6.60;;;;;;;9.29;80.89;102616.16;5045317;28;20021;-40
2021/11/18 02:10:37;;;;;;;42.08;5.28;;;;;;;9.31;81.14;102622.25;5046939;28;20029;-40
2021/11/18 02:13:07;;;;;;;42.10;5.57;;;;;;;9.32;80.98;102618.63;5053403;28;20017;-41
2021/11/18 02:15:37;;;;;;;49.03;5.53;;;;;;;9.36;80.84;102613.81;5036516;28;20033;-40
2021/11/18 02:18:17;;;;;;;49.13;4.88;;;;;;;9.41;80.92;102619.66;5034955;28;20049;-40
2021/11/18 02:20:44;;;;;;;35.50;4.50;;;;;;;9.43;80.78;102625.75;5034957;28;20029;-39
2021/11/18 02:23:15;;;;;;;53.63;5.07;;;;;;;9.45;80.91;102621.09;5042825;28;20033;-40
2021/11/18 02:25:41;;;;;;;44.78;5.85;;;;;;;9.48;80.50;102628.03;5045349;28;20051;-40
2021/11/18 02:28:06;;;;;;;60.90;6.03;;;;;;;9.50;80.56;102626.06;5054494;28;20025;-40
2021/11/18 02:30:36;;;;;;;51.28;5.38;;;;;;;9.50;80.13;102628.75;5054296;28;20040;-40
2021/11/18 02:33:01;;;;;;;46.67;4.90;;;;;;;9.53;80.07;102628.50;5053135;28;20025;-40
2021/11/18 02:35:29;;;;;;;48.45;5.43;;;;;;;9.55;80.03;102629.22;5036079;28;20127;-40
2021/11/18 02:37:56;;;;;;;39.20;5.45;;;;;;;9.59;79.31;102641.44;5050012;28;20029;-40
2021/11/18 02:40:23;;;;;;;44.88;5.82;;;;;;;9.61;80.01;102634.06;5046090;28;20087;-40
2021/11/18 02:42:49;;;;;;;38.55;5.43;;;;;;;9.63;79.51;102632.94;5034233;28;20461;-40
2021/11/18 02:45:21;;;;;;;44.25;5.28;;;;;;;9.64;79.42;102623.91;5046134;28;20028;-41
2021/11/18 02:47:47;;;;;;;41.60;5.18;;;;;;;9.65;79.50;102633.66;5052306;28;20033;-40
2021/11/18 02:50:17;;;;;;;53.25;6.70;;;;;;;9.70;79.41;102625.22;5049208;28;20044;-40
2021/11/18 02:52:42;;;;;;;51.10;6.47;;;;;;;9.70;79.41;102611.78;5049294;28;20550;-40
2021/11/18 02:55:15;;;;;;;43.35;4.82;;;;;;;9.70;79.32;102616.31;5053844;28;20033;-40
2021/11/18 02:57:40;;;;;;;43.95;5.00;;;;;;;9.68;79.41;102613.75;5046443;28;20029;-40
2021/11/18 03:00:12;;;;;;;56.17;7.03;;;;;;;9.69;79.43;102607.41;5033524;28;20041;-40
2021/11/18 03:02:37;;;;;;;47.00;4.47;;;;;;;9.72;79.21;102609.81;5039087;28;20069;-40
2021/11/18 03:05:05;;;;;;;48.67;5.10;;;;;;;9.74;79.19;102615.03;5052547;28;20056;-40
2021/11/18 03:07:31;;;;;;;43.33;4.60;;;;;;;9.77;78.74;102614.75;5053082;28;20055;-40
2021/11/18 03:09:57;;;;;;;49.83;5.93;;;;;;;9.76;78.71;102610.38;5053176;28;20021;-40
2021/11/18 03:12:22;;;;;;;31.48;4.07;;;;;;;9.75;78.64;102609.53;5048305;28;20393;-40
2021/11/18 03:14:47;;;;;;;34.63;5.55;;;;;;;9.78;78.53;102611.13;5031879;28;20476;-40
2021/11/18 03:17:13;;;;;;;41.63;4.05;;;;;;;9.81;78.13;102609.00;5031781;28;20025;-40
2021/11/18 03:19:39;;;;;;;30.85;4.28;;;;;;;9.81;77.84;102609.00;5032925;28;20036;-41
2021/11/18 03:22:05;;;;;;;44.72;4.40;;;;;;;9.81;78.05;102617.06;5028181;28;20044;-41
2021/11/18 03:24:30;;;;;;;35.15;4.75;;;;;;;9.80;77.58;102623.44;5023031;28;20326;-39
2021/11/18 03:26:55;;;;;;;48.55;4.13;;;;;;;9.81;77.18;102614.38;5033017;28;20111;-40
2021/11/18 03:29:20;;;;;;;47.17;4.95;;;;;;;9.79;77.09;102610.97;5037718;28;20037;-40
2021/11/18 03:31:46;;;;;;;43.53;4.10;;;;;;;9.78;77.33;102611.13;5034362;28;20025;-40
2021/11/18 03:34:14;;;;;;;41.67;4.80;;;;;;;9.73;77.37;102599.91;5051574;28;20490;-40
2021/11/18 03:36:39;;;;;;;;;;;;;;;9.72;76.93;102617.03;5053145;28;20021;-40
2021/11/18 03:39:07;;;;;;;34.30;4.97;;;;;;;9.70;76.63;102616.31;5034888;28;20016;-39
2021/11/18 03:41:36;;;;;;;30.73;4.25;;;;;;;9.67;76.74;102617.41;5032766;28;20032;-40
2021/11/18 03:44:04;;;;;;;31.45;3.78;;;;;;;9.65;76.80;102619.38;5013065;28;20040;-39
2021/11/18 03:46:37;;;;;;;41.53;4.70;;;;;;;9.63;76.65;102613.28;5022658;28;20033;-39
2021/11/18 03:49:03;;;;;;;33.47;4.10;;;;;;;9.58;77.18;102612.81;5034713;28;20083;-39
2021/11/18 03:51:32;;;;;;;24.92;3.22;;;;;;;9.52;77.13;102618.72;5034851;28;20109;-39
2021/11/18 03:53:57;;;;;;;42.50;4.90;;;;;;;9.49;76.61;102619.00;5033004;28;20029;-41
2021/11/18 03:56:25;;;;;;;31.80;3.25;;;;;;;9.46;76.86;102612.06;5032419;28;20071;-40
2021/11/18 03:58:51;;;;;;;40.45;4.55;;;;;;;9.47;76.54;102615.59;5032654;28;20036;-39
2021/11/18 04:01:16;;;;;;;43.25;3.75;;;;;;;9.47;75.98;102610.22;5031234;28;20112;-39
2021/11/18 04:03:42;;;;;;;35.13;4.07;;;;;;;9.47;75.62;102607.53;5048232;28;20028;-39
2021/11/18 04:06:08;;;;;;;35.65;4.53;;;;;;;9.43;76.34;102610.47;5050976;28;20041;-40
2021/11/18 04:08:33;;;;;;;33.08;3.75;;;;;;;9.40;75.99;102610.75;5052391;28;20032;-40
2021/11/18 04:10:59;;;;;;;32.20;3.20;;;;;;;9.41;75.85;102609.75;5051270;28;20127;-40
2021/11/18 04:13:24;;;;;;;39.50;3.85;;;;;;;9.38;75.94;102618.09;5037715;28;20037;-40
2021/11/18 04:15:50;;;;;;;37.13;3.72;;;;;;;9.39;76.45;102625.16;5049755;28;20029;-40
2021/11/18 04:18:21;;;;;;;45.53;4.18;;;;;;;9.36;76.30;102621.88;5052606;28;20029;-40
2021/11/18 04:20:49;;;;;;;30.38;3.35;;;;;;;9.36;76.30;102630.78;5052069;28;20040;-40
2021/11/18 04:23:15;;;;;;;37.88;4.97;;;;;;;9.36;76.98;102619.19;5041053;28;20029;-40
2021/11/18 04:25:41;;;;;;;41.03;3.47;;;;;;;9.35;77.08;102621.03;5038092;28;20107;-40
2021/11/18 04:28:06;;;;;;;37.60;3.85;;;;;;;9.34;77.41;102619.31;5055214;28;20472;-39
2021/11/18 04:30:52;;;;;;;36.08;4.28;;;;;;;9.28;77.78;102611.78;5056531;28;20476;-39
2021/11/18 04:33:18;;;;;;;48.38;4.57;;;;;;;9.27;78.03;102595.78;5042977;28;20033;-39
2021/11/18 04:35:43;;;;;;;40.53;5.35;;;;;;;9.24;78.09;102591.50;5036312;28;20554;-40
2021/11/18 04:38:08;;;;;;;32.83;5.30;;;;;;;9.27;77.37;102582.34;5043087;28;20372;-40
2021/11/18 04:40:35;;;;;;;44.25;4.10;;;;;;;9.31;77.07;102584.66;5054960;28;20475;-40
2021/11/18 04:43:02;;;;;;;38.97;4.13;;;;;;;9.34;77.22;102588.91;5047882;28;20029;-40
2021/11/18 04:45:27;;;;;;;30.00;5.22;;;;;;;9.32;77.52;102591.75;5054965;28;20045;-40
2021/11/18 04:47:53;;;;;;;37.00;4.60;;;;;;;9.32;77.93;102591.75;5054897;28;20080;-39
2021/11/18 04:50:20;;;;;;;36.80;4.78;;;;;;;9.27;77.80;102583.22;5044536;28;20025;-39
2021/11/18 04:52:46;;;;;;;40.72;4.10;;;;;;;9.30;77.98;102593.69;5044136;28;20104;-39
2021/11/18 04:55:14;;;;;;;40.38;3.90;;;;;;;9.27;78.46;102587.72;5054726;28;20123;-40
2021/11/18 04:57:40;;;;;;;53.25;5.50;;;;;;;9.27;78.75;102579.66;5054032;28;20079;-40
2021/11/18 05:00:11;;;;;;;39.72;4.70;;;;;;;9.27;78.84;102579.66;5055928;28;20037;-40
2021/11/18 05:02:37;;;;;;;36.75;4.35;;;;;;;9.26;79.39;102589.56;5054700;28;20460;-40
2021/11/18 05:05:04;;;;;;;38.10;4.80;;;;;;;9.26;79.56;102597.63;5055851;28;20024;-39
2021/11/18 05:07:29;;;;;;;46.83;5.93;;;;;;;9.27;79.64;102593.09;5054322;28;20048;-39
2021/11/18 05:09:54;;;;;;;47.35;5.20;;;;;;;9.27;79.46;102599.34;5055110;28;20123;-40
2021/11/18 05:12:20;;;;;;;42.28;5.05;;;;;;;9.25;79.68;102595.94;5055875;28;20032;-39
2021/11/18 05:14:45;;;;;;;42.08;4.50;;;;;;;9.26;80.01;102592.25;5056209;28;20025;-40
2021/11/18 05:17:11;;;;;;;40.20;4.60;;;;;;;9.27;79.95;102598.47;5057963;28;20029;-40
2021/11/18 05:19:36;;;;;;;50.00;4.78;;;;;;;9.28;79.83;102601.03;5056293;28;20048;-39
2021/11/18 05:22:03;;;;;;;37.85;4.97;;;;;;;9.24;79.94;102602.25;5049770;28;20032;-40
2021/11/18 05:24:28;;;;;;;40.55;5.95;;;;;;;9.23;80.01;102596.03;5035612;28;20109;-40
2021/11/18 05:26:53;;;;;;;45.20;4.90;;;;;;;9.21;80.32;102594.47;5036459;28;20506;-40
2021/11/18 05:29:19;;;;;;;33.97;4.70;;;;;;;9.18;80.10;102592.88;5035416;28;20545;-40
2021/11/18 05:31:44;;;;;;;48.75;5.55;;;;;;;9.17;80.69;102598.41;5035353;28;20036;-40
2021/11/18 05:34:10;;;;;;;39.90;4.10;;;;;;;9.17;81.01;102593.03;5035604;28;20414;-40
2021/11/18 05:36:35;;;;;;;48.72;5.57;;;;;;;9.17;81.26;102611.84;5035245;28;20029;-40
2021/11/18 05:39:01;;;;;;;39.15;4.57;;;;;;;9.19;80.87;102607.19;5048426;28;20029;-40
2021/11/18 05:41:27;;;;;;;39.47;5.45;;;;;;;9.17;81.05;102601.94;5036216;28;20029;-40
2021/11/18 05:43:52;;;;;;;47.03;6.20;;;;;;;9.16;81.14;102594.00;5037275;28;20036;-40
2021/11/18 05:46:20;;;;;;;57.33;5.80;;;;;;;9.18;80.58;102600.09;5037875;28;20510;-40
2021/11/18 05:48:45;;;;;;;55.28;5.28;;;;;;;9.19;80.48;102591.09;5042062;28;20484;-40
2021/11/18 05:51:12;;;;;;;46.88;6.05;;;;;;;9.22;79.96;102598.88;5054422;28;20029;-40
2021/11/18 05:53:40;;;;;;;41.90;4.63;;;;;;;9.23;79.82;102593.34;5041478;28;20457;-40
2021/11/18 05:56:10;;;;;;;42.50;6.18;;;;;;;9.27;79.53;102588.59;5039369;28;20379;-40
2021/11/18 05:58:36;;;;;;;43.25;4.43;;;;;;;9.28;79.04;102595.66;5024218;28;20138;-40
2021/11/18 06:01:03;;;;;;;50.72;5.88;;;;;;;9.26;78.98;102592.25;5035430;28;20412;-40
2021/11/18 06:03:29;;;;;;;51.10;5.65;;;;;;;9.27;79.00;102588.59;5044152;28;20043;-40
2021/11/18 06:05:54;;;;;;;40.10;4.75;;;;;;;9.29;78.69;102601.88;5038954;28;20395;-40
2021/11/18 06:08:19;;;;;;;39.88;4.43;;;;;;;9.27;78.57;102615.47;5043128;28;20057;-40
2021/11/18 06:10:45;;;;;;;36.47;4.82;;;;;;;9.23;79.02;102609.47;5034616;28;20033;-40
2021/11/18 06:13:10;;;;;;;39.85;4.20;;;;;;;9.24;78.24;102602.25;5034153;28;20473;-40
2021/11/18 06:15:36;;;;;;;34.75;4.72;;;;;;;9.20;78.04;102595.47;5034305;28;20033;-40
2021/11/18 06:18:02;;;;;;;41.65;4.72;;;;;;;9.19;77.99;102607.19;5034107;28;20029;-40
2021/11/18 06:20:28;;;;;;;34.85;4.07;;;;;;;9.18;77.88;102598.25;5033183;28;20037;-40
2021/11/18 06:22:54;;;;;;;29.95;3.83;;;;;;;9.14;78.07;102615.63;5033271;28;20025;-40
2021/11/18 06:25:23;;;;;;;40.38;5.18;;;;;;;8.95;80.86;102607.41;5034045;28;20370;-40
2021/11/18 06:27:48;;;;;;;53.13;6.38;;;;;;;8.78;82.19;102611.50;5034235;28;20037;-40
2021/11/18 06:30:33;;;;;;;48.65;6.63;;;;;;;8.64;83.29;102606.44;5033941;28;20048;-40
2021/11/18 06:32:59;;;;;;;43.17;5.88;;;;;;;8.51;83.95;102611.94;5034100;28;20045;-40
2021/11/18 06:35:25;;;;;;;53.30;6.47;;;;;;;8.41;84.55;102605.63;5033901;28;20022;-40
2021/11/18 06:37:51;;;;;;;40.03;4.82;;;;;;;8.34;84.83;102606.06;5033983;28;20033;-40
2021/11/18 06:40:18;;;;;;;55.53;6.55;;;;;;;8.29;85.10;102618.13;5033838;28;20037;-39
2021/11/18 06:42:44;;;;;;;56.22;7.10;;;;;;;8.25;85.41;102609.50;5033876;28;20057;-39
2021/11/18 06:45:12;;;;;;;40.10;5.55;;;;;;;8.20;85.96;102608.16;5033752;28;20034;-40
2021/11/18 06:47:38;;;;;;;44.58;5.82;;;;;;;8.20;86.32;102617.06;5032711;28;20116;-40
2021/11/18 06:50:04;;;;;;;42.33;5.88;;;;;;;8.21;86.99;102620.59;5033735;28;20518;-40
2021/11/18 06:52:29;;;;;;;48.17;6.70;;;;;;;8.22;86.71;102616.94;5033389;28;20112;-39
2021/11/18 06:54:55;;;;;;;56.10;6.55;;;;;;;8.23;86.88;102624.00;5033473;28;20204;-41
2021/11/18 06:57:20;;;;;;;49.63;7.47;;;;;;;8.25;86.99;102624.75;5033383;28;20033;-40
2021/11/18 06:59:46;;;;;;;49.45;6.63;;;;;;;8.27;86.51;102641.56;5033355;28;20115;-41
2021/11/18 07:02:12;;;;;;;55.08;7.32;;;;;;;8.26;87.08;102647.91;5033310;28;20025;-41
2021/11/18 07:04:38;;;;;;;46.97;6.38;;;;;;;8.28;86.96;102656.69;5033328;28;20036;-40
2021/11/18 07:07:04;;;;;;;51.33;6.40;;;;;;;8.28;86.94;102654.84;5032726;28;20045;-40
2021/11/18 07:09:29;;;;;;;59.83;8.23;;;;;;;8.29;87.36;102658.38;5033058;28;20045;-42
2021/11/18 07:11:56;;;;;;;44.30;7.18;;;;;;;8.29;87.47;102655.69;5032191;28;20055;-40
2021/11/18 07:14:22;;;;;;;46.40;6.47;;;;;;;8.29;87.26;102650.34;5032965;28;20041;-40
2021/11/18 07:16:47;;;;;;;52.97;6.53;;;;;;;8.31;87.45;102653.75;5015260;28;20037;-40
2021/11/18 07:19:12;;;;;;;60.10;8.25;;;;;;;8.31;87.21;102657.28;5032665;28;20064;-41
2021/11/18 07:21:38;;;;;;;57.70;6.70;;;;;;;8.32;87.01;102667.06;5032614;28;20029;-41
2021/11/18 07:24:06;;;;;;;43.40;7.13;;;;;;;8.32;87.07;102668.84;5033322;28;20124;-40
2021/11/18 07:26:35;;;;;;;54.28;6.78;;;;;;;8.32;87.62;102668.84;5032932;28;20034;-40
2021/11/18 07:29:01;;;;;;;55.80;6.82;;;;;;;8.32;87.36;102668.84;5033071;28;20048;-40
2021/11/18 07:31:26;;;;;;;53.42;6.68;;;;;;;8.34;87.19;102674.97;5031572;28;20467;-40
2021/11/18 07:33:52;;;;;;;49.85;6.65;;;;;;;8.34;86.98;102681.19;5032533;28;20034;-41
2021/11/18 07:36:17;;;;;;;52.22;6.55;;;;;;;8.36;87.00;102681.91;5032450;28;20033;-41
2021/11/18 07:38:42;;;;;;;52.35;6.75;;;;;;;8.39;87.41;102672.81;5032555;28;20546;-40
2021/11/18 07:41:08;;;;;;;45.53;6.55;;;;;;;8.37;87.21;102672.03;5032670;28;20033;-40
2021/11/18 07:43:38;;;;;;;51.72;7.22;;;;;;;8.35;87.72;102672.16;5032638;28;20551;-40
2021/11/18 07:46:04;;;;;;;52.92;7.68;;;;;;;8.36;87.35;102667.66;5031880;28;20532;-40
2021/11/18 07:48:30;;;;;;;57.30;7.38;;;;;;;8.36;87.35;102660.44;5032318;28;20029;-40
2021/11/18 07:50:57;;;;;;;48.92;7.50;;;;;;;8.36;87.89;102667.66;5032186;28;20029;-40
2021/11/18 07:53:23;;;;;;;49.75;7.07;;;;;;;8.40;87.39;102674.53;5032182;28;20476;-40
2021/11/18 07:55:49;;;;;;;46.47;6.45;;;;;;;8.42;87.29;102677.91;5031970;28;20028;-40
2021/11/18 07:58:15;;;;;;;50.20;7.95;;;;;;;8.43;87.24;102666.22;5031215;28;20033;-40
2021/11/18 08:00:45;;;;;;;45.90;7.57;;;;;;;8.46;87.64;102675.88;5031720;28;20056;-40
2021/11/18 08:03:12;;;;;;;52.85;8.30;;;;;;;8.46;87.50;102670.50;5032221;28;20116;-40
2021/11/18 08:05:37;;;;;;;58.23;7.47;;;;;;;8.52;87.38;102662.78;5032375;28;20036;-41
2021/11/18 08:08:04;;;;;;;56.58;8.00;;;;;;;8.52;87.37;102670.00;5031093;28;20125;-40
2021/11/18 08:10:30;;;;;;;47.00;7.35;;;;;;;8.53;87.26;102663.63;5032378;28;20132;-40
2021/11/18 08:12:56;;;;;;;55.70;6.95;;;;;;;8.53;87.01;102672.56;5030910;28;20079;-41
2021/11/18 08:15:21;;;;;;;42.50;7.78;;;;;;;8.56;87.14;102668.78;5031188;28;20033;-41
2021/11/18 08:17:47;;;;;;;53.03;7.85;;;;;;;8.64;87.09;102673.53;5032266;28;20144;-40
2021/11/18 08:20:14;;;;;;;43.88;7.47;;;;;;;8.68;87.00;102669.59;5032123;28;20647;-40
2021/11/18 08:22:40;;;;;;;53.10;7.25;;;;;;;8.72;86.78;102669.22;5031042;28;20366;-41
2021/11/18 08:25:06;;;;;;;51.65;8.05;;;;;;;8.77;86.79;102671.56;5032387;28;20040;-42
2021/11/18 08:27:32;;;;;;;62.00;9.38;;;;;;;8.87;86.19;102683.22;5030772;28;20404;-41
2021/11/18 08:29:58;;;;;;;56.55;7.75;;;;;;;9.02;86.28;102687.34;5032380;28;20025;-40
2021/11/18 08:32:24;;;;;;;45.03;7.25;;;;;;;9.44;84.88;102682.03;5032278;28;20112;-41
2021/11/18 08:34:50;;;;;;;53.40;7.55;;;;;;;9.59;83.33;102673.69;5032151;28;20100;-39
2021/11/18 08:37:16;;;;;;;44.72;8.52;;;;;;;9.53;83.25;102675.06;5031773;28;20100;-40
2021/11/18 08:39:41;;;;;;;63.78;7.88;;;;;;;9.79;82.81;102680.88;5030789;28;20038;-40
2021/11/18 08:42:09;;;;;;;38.88;6.75;;;;;;;10.08;81.32;102666.75;5032262;28;20022;-40
2021/11/18 08:44:37;;;;;;;55.63;7.57;;;;;;;10.24;80.45;102658.19;5028861;28;20038;-40
2021/11/18 08:47:03;;;;;;;51.00;6.88;;;;;;;10.52;79.54;102665.53;5012399;28;20129;-41
2021/11/18 08:49:30;;;;;;;44.30;7.05;;;;;;;10.52;78.84;102668.22;5028175;28;20493;-42
2021/11/18 08:51:58;;;;;;;43.10;6.22;;;;;;;10.73;77.97;102670.84;5014673;28;20092;-42
2021/11/18 08:54:25;;;;;;;49.15;8.43;;;;;;;10.53;78.80;102663.69;5025790;28;20079;-42
2021/11/18 08:56:53;;;;;;;39.47;6.57;;;;;;;10.63;78.55;102661.88;5033188;28;20056;-41
2021/11/18 08:59:20;;;;;;;49.03;7.10;;;;;;;10.49;78.89;102670.38;5031836;28;20144;-42
2021/11/18 09:01:54;;;;;;;51.83;7.53;;;;;;;10.49;78.78;102671.22;5034251;28;20017;-42
2021/11/18 09:04:22;;;;;;;51.63;5.90;;;;;;;10.65;78.36;102659.06;5029227;28;20033;-42
2021/11/18 09:06:47;;;;;;;41.50;5.75;;;;;;;10.85;77.58;102662.63;5051171;28;20080;-42
2021/11/18 09:09:15;;;;;;;47.95;7.13;;;;;;;11.15;77.27;102670.63;5051087;28;20072;-43
2021/11/18 09:11:41;;;;;;;40.38;6.50;;;;;;;11.19;76.43;102673.91;5055235;28;20565;-42
2021/11/18 09:14:10;;;;;;;37.50;6.72;;;;;;;11.34;76.06;102669.78;5055304;28;20021;-43
2021/11/18 09:16:36;;;;;;;62.30;8.20;;;;;;;11.62;75.13;102683.41;5042161;28;20448;-42
2021/11/18 09:19:08;;;;;;;44.00;7.50;;;;;;;11.72;74.48;102678.00;5024849;28;20112;-42
2021/11/18 09:21:35;;;;;;;40.25;7.50;;;;;;;11.76;74.25;102674.84;5015605;28;20026;-42
2021/11/18 09:24:09;;;;;;;30.67;6.38;;;;;;;11.54;75.03;102675.16;5028800;28;20044;-42
2021/11/18 09:26:37;;;;;;;37.40;7.07;;;;;;;11.63;75.19;102669.75;5033887;28;20033;-41
2021/11/18 09:29:03;;;;;;;37.22;6.25;;;;;;;11.68;75.04;102682.81;5035347;28;20033;-42
2021/11/18 09:31:31;;;;;;;56.70;7.43;;;;;;;11.33;75.88;102672.63;5034947;28;20518;-42
2021/11/18 09:33:57;;;;;;;58.10;8.40;;;;;;;11.37;75.88;102679.41;5034911;28;20022;-42
2021/11/18 09:36:25;;;;;;;39.53;7.13;;;;;;;11.30;76.00;102676.47;5034780;28;20032;-42
2021/11/18 09:38:51;;;;;;;;;;;;;;;11.24;76.63;102676.16;5035224;28;20037;-41
2021/11/18 09:41:25;;;;;;;38.58;5.47;;;;;;;11.32;76.13;102681.69;5034742;28;19905;-41
2021/11/18 09:44:19;;;;;;;37.80;7.22;;;;;;;11.32;75.90;102687.09;5034722;28;20021;-41
2021/11/18 09:46:57;;;;;;;51.47;7.60;;;;;;;11.43;75.21;102685.09;5035010;28;20607;-42
2021/11/18 09:49:31;;;;;;;41.58;5.57;;;;;;;11.58;75.44;102693.59;5016956;28;20041;-42
2021/11/18 09:52:04;;;;;;;44.35;5.97;;;;;;;11.72;74.81;102688.78;5034819;28;20025;-43
2021/11/18 09:54:38;;;;;;;45.25;5.60;;;;;;;11.90;73.96;102692.47;5034814;28;20037;-41
2021/11/18 09:57:19;;;;;;;41.90;6.53;;;;;;;11.83;74.25;102700.25;5034688;28;20109;-40
2021/11/18 09:59:57;;;;;;;38.97;5.93;;;;;;;12.14;73.79;102707.31;5033656;28;20037;-40
2021/11/18 10:02:34;;;;;;;38.00;6.40;;;;;;;12.06;73.80;102706.22;5034500;28;20079;-42
2021/11/18 10:05:26;;;;;;;42.30;6.22;;;;;;;11.93;73.89;102708.38;5034837;28;20100;-43
2021/11/18 10:08:07;;;;;;;44.55;6.63;;;;;;;11.85;74.66;102717.16;5033254;28;20077;-43
2021/11/18 10:10:43;;;;;;;45.63;7.63;;;;;;;11.70;74.68;102712.34;5034605;28;20049;-42
2021/11/18 10:13:30;;;;;;;48.83;6.63;;;;;;;11.61;75.38;102704.13;5033148;28;20030;-43
2021/11/18 10:16:04;;;;;;;44.08;7.28;;;;;;;11.77;75.07;102706.22;5034132;28;20112;-41
2021/11/18 10:18:35;;;;;;;39.08;6.25;;;;;;;11.68;74.95;102714.31;5033045;28;20025;-42
2021/11/18 10:21:23;;;;;;;48.42;6.10;;;;;;;11.77;75.30;102713.44;5032818;28;20053;-43
2021/11/18 10:23:52;;;;;;;48.33;7.05;;;;;;;11.91;74.91;102710.34;5034012;28;20029;-42
2021/11/18 10:26:21;;;;;;;49.65;7.63;;;;;;;11.92;74.66;102717.44;5033135;28;20137;-42
2021/11/18 10:29:07;;;;;;;45.75;6.85;;;;;;;11.92;74.46;102703.09;5034135;28;20071;-42
2021/11/18 10:31:54;;;;;;;41.63;6.15;;;;;;;12.14;74.44;102696.50;5023570;28;20492;-41
2021/11/18 10:34:29;;;;;;;50.40;6.35;;;;;;;12.22;73.95;102699.34;5014230;28;20448;-42
2021/11/18 10:37:06;;;;;;;41.65;7.13;;;;;;;12.25;73.36;102690.94;5013897;28;20045;-43
2021/11/18 10:39:44;;;;;;;41.50;5.67;;;;;;;12.22;72.37;102696.66;5014252;28;20022;-42
2021/11/18 10:42:19;;;;;;;48.85;5.90;;;;;;;12.34;72.77;102700.84;5013942;28;20084;-42
2021/11/18 10:44:50;;;;;;;37.28;5.00;;;;;;;12.43;71.81;102678.38;5014011;28;20477;-43
2021/11/18 10:47:18;;;;;;;49.55;5.15;;;;;;;12.33;71.36;102685.66;5014345;28;20154;-42
2021/11/18 10:49:59;;;;;;;39.40;5.85;;;;;;;12.34;71.59;102689.19;5014167;28;20500;-42
2021/11/18 10:52:32;;;;;;;43.10;5.82;;;;;;;12.15;71.59;102690.13;5014295;28;20030;-41
2021/11/18 10:55:08;;;;;;;41.88;5.03;;;;;;;12.20;72.18;102687.84;5029097;28;20091;-42
2021/11/18 10:57:35;;;;;;;40.10;4.82;;;;;;;12.31;71.26;102679.53;5033448;28;20460;-41
2021/11/18 11:00:22;;;;;;;46.15;4.28;;;;;;;12.66;70.88;102675.25;5033497;28;20388;-42
2021/11/18 11:02:48;;;;;;;45.85;5.32;;;;;;;13.27;69.27;102663.78;5033242;28;20029;-41
2021/11/18 11:05:32;;;;;;;30.73;4.07;;;;;;;13.38;66.94;102670.78;5033601;28;20026;-42
2021/11/18 11:07:58;;;;;;;37.58;4.22;;;;;;;13.60;67.12;102667.59;5032896;28;20128;-42
2021/11/18 11:10:26;;;;;;;33.95;4.72;;;;;;;13.30;66.33;102681.53;5033044;28;20033;-41
2021/11/18 11:13:00;;;;;;;44.88;5.47;;;;;;;13.10;67.76;102670.00;5033094;28;20468;-42
2021/11/18 11:15:50;;;;;;;38.08;4.50;;;;;;;12.98;68.10;102660.41;5032387;28;20029;-40
2021/11/18 11:18:20;;;;;;;43.72;4.75;;;;;;;13.01;68.75;102660.13;5021953;28;20029;-41
2021/11/18 11:20:51;;;;;;;58.45;4.95;;;;;;;13.09;67.93;102654.78;5015665;28;20495;-41
2021/11/18 11:23:34;;;;;;;45.40;5.57;;;;;;;13.16;67.89;102663.97;5033192;28;20449;-40
2021/11/18 11:26:14;;;;;;;32.42;4.18;;;;;;;13.22;66.92;102654.38;5031370;28;20036;-41
2021/11/18 11:28:58;;;;;;;44.90;4.95;;;;;;;13.13;67.13;102656.16;5033195;28;20025;-40